sensor_id;sensor_type;location;lat;lon;timestamp;P1;durP1;ratioP1;P2;durP2;ratioP2
37517;SDS011;23366;52.498;13.446;2023-02-13T00:02:24;19.77;;;9.32;;
37517;SDS011;23366;52.498;13.446;2023-02-13T00:04:50;22.05;;;10.23;;
37517;SDS011;23366;52.498;13.446;2023-02-13T00:07:15;21.75;;;9.20;;
37517;SDS011;23366;52.498;13.446;2023-02-13T00:09:41;20.38;;;9.38;;
37517;SDS011;23366;52.498;13.446;2023-02-13T00:12:06;21.02;;;9.50;;
37517;SDS011;23366;52.498;13.446;2023-02-13T00:14:36;19.50;;;8.88;;
37517;SDS011;23366;52.498;13.446;2023-02-13T00:17:03;19.48;;;8.68;;
37517;SDS011;23366;52.498;13.446;2023-02-13T00:19:29;20.80;;;9.00;;
37517;SDS011;23366;52.498;13.446;2023-02-13T00:21:54;19.17;;;7.15;;
37517;SDS011;23366;52.498;13.446;2023-02-13T00:24:20;16.27;;;6.07;;
37517;SDS011;23366;52.498;13.446;2023-02-13T00:26:45;12.77;;;4.85;;
37517;SDS011;23366;52.498;13.446;2023-02-13T00:29:11;11.77;;;5.50;;
37517;SDS011;23366;52.498;13.446;2023-02-13T00:31:37;10.07;;;4.90;;
37517;SDS011;23366;52.498;13.446;2023-02-13T00:34:02;14.35;;;5.80;;
37517;SDS011;23366;52.498;13.446;2023-02-13T00:36:28;12.00;;;5.20;;
37517;SDS011;23366;52.498;13.446;2023-02-13T00:38:54;14.07;;;5.70;;
37517;SDS011;23366;52.498;13.446;2023-02-13T00:41:20;10.93;;;5.07;;
37517;SDS011;23366;52.498;13.446;2023-02-13T00:43:46;10.77;;;4.88;;
37517;SDS011;23366;52.498;13.446;2023-02-13T00:46:13;12.82;;;6.78;;
37517;SDS011;23366;52.498;13.446;2023-02-13T00:48:39;14.93;;;7.95;;
37517;SDS011;23366;52.498;13.446;2023-02-13T00:51:05;10.68;;;5.88;;
37517;SDS011;23366;52.498;13.446;2023-02-13T00:53:31;7.07;;;3.58;;
37517;SDS011;23366;52.498;13.446;2023-02-13T00:55:58;13.50;;;5.45;;
37517;SDS011;23366;52.498;13.446;2023-02-13T00:58:24;9.00;;;5.13;;
37517;SDS011;23366;52.498;13.446;2023-02-13T01:00:50;9.35;;;4.57;;
37517;SDS011;23366;52.498;13.446;2023-02-13T01:03:17;7.30;;;4.25;;
37517;SDS011;23366;52.498;13.446;2023-02-13T01:05:43;11.60;;;4.50;;
37517;SDS011;23366;52.498;13.446;2023-02-13T01:08:09;8.18;;;3.47;;
37517;SDS011;23366;52.498;13.446;2023-02-13T01:10:36;13.50;;;4.65;;
37517;SDS011;23366;52.498;13.446;2023-02-13T01:13:06;5.65;;;3.17;;
37517;SDS011;23366;52.498;13.446;2023-02-13T01:15:32;4.80;;;2.38;;
37517;SDS011;23366;52.498;13.446;2023-02-13T01:17:58;4.10;;;2.58;;
37517;SDS011;23366;52.498;13.446;2023-02-13T01:20:25;10.82;;;2.95;;
37517;SDS011;23366;52.498;13.446;2023-02-13T01:22:51;8.60;;;3.30;;
37517;SDS011;23366;52.498;13.446;2023-02-13T01:25:17;9.25;;;2.67;;
37517;SDS011;23366;52.498;13.446;2023-02-13T01:27:43;5.05;;;2.67;;
37517;SDS011;23366;52.498;13.446;2023-02-13T01:30:09;5.57;;;2.38;;
37517;SDS011;23366;52.498;13.446;2023-02-13T01:32:39;7.82;;;2.97;;
37517;SDS011;23366;52.498;13.446;2023-02-13T01:35:05;8.00;;;2.53;;
37517;SDS011;23366;52.498;13.446;2023-02-13T01:37:31;7.53;;;3.85;;
37517;SDS011;23366;52.498;13.446;2023-02-13T01:39:57;6.65;;;2.47;;
37517;SDS011;23366;52.498;13.446;2023-02-13T01:42:27;2.70;;;1.88;;
37517;SDS011;23366;52.498;13.446;2023-02-13T01:44:57;5.55;;;2.40;;
37517;SDS011;23366;52.498;13.446;2023-02-13T01:55:24;5.50;;;2.95;;
37517;SDS011;23366;52.498;13.446;2023-02-13T01:58:00;2.92;;;1.92;;
37517;SDS011;23366;52.498;13.446;2023-02-13T02:00:29;7.60;;;2.05;;
37517;SDS011;23366;52.498;13.446;2023-02-13T02:03:04;5.75;;;1.83;;
37517;SDS011;23366;52.498;13.446;2023-02-13T02:05:38;7.63;;;3.03;;
37517;SDS011;23366;52.498;13.446;2023-02-13T02:08:05;5.93;;;1.60;;
37517;SDS011;23366;52.498;13.446;2023-02-13T02:10:34;5.05;;;2.33;;
37517;SDS011;23366;52.498;13.446;2023-02-13T02:13:05;6.20;;;2.28;;
37517;SDS011;23366;52.498;13.446;2023-02-13T02:15:35;6.78;;;2.83;;
37517;SDS011;23366;52.498;13.446;2023-02-13T02:18:00;4.60;;;3.38;;
37517;SDS011;23366;52.498;13.446;2023-02-13T02:34:08;8.15;;;2.72;;
37517;SDS011;23366;52.498;13.446;2023-02-13T02:36:57;9.38;;;3.05;;
37517;SDS011;23366;52.498;13.446;2023-02-13T02:45:05;8.63;;;2.83;;
37517;SDS011;23366;52.498;13.446;2023-02-13T02:55:59;7.32;;;2.90;;
37517;SDS011;23366;52.498;13.446;2023-02-13T02:59:18;7.13;;;3.37;;
37517;SDS011;23366;52.498;13.446;2023-02-13T03:01:46;6.32;;;3.30;;
37517;SDS011;23366;52.498;13.446;2023-02-13T03:04:37;7.07;;;3.42;;
37517;SDS011;23366;52.498;13.446;2023-02-13T03:07:24;7.40;;;3.15;;
37517;SDS011;23366;52.498;13.446;2023-02-13T03:09:51;5.25;;;2.63;;
37517;SDS011;23366;52.498;13.446;2023-02-13T03:12:50;6.00;;;3.08;;
37517;SDS011;23366;52.498;13.446;2023-02-13T03:15:39;5.70;;;3.13;;
37517;SDS011;23366;52.498;13.446;2023-02-13T03:18:26;5.47;;;3.17;;
37517;SDS011;23366;52.498;13.446;2023-02-13T03:21:15;5.97;;;3.22;;
37517;SDS011;23366;52.498;13.446;2023-02-13T03:27:12;5.03;;;3.08;;
37517;SDS011;23366;52.498;13.446;2023-02-13T03:35:21;7.28;;;3.92;;
37517;SDS011;23366;52.498;13.446;2023-02-13T03:38:16;8.05;;;3.85;;
37517;SDS011;23366;52.498;13.446;2023-02-13T03:40:48;8.93;;;4.90;;
37517;SDS011;23366;52.498;13.446;2023-02-13T03:43:38;8.10;;;3.55;;
37517;SDS011;23366;52.498;13.446;2023-02-13T03:46:11;8.70;;;4.38;;
37517;SDS011;23366;52.498;13.446;2023-02-13T03:48:38;9.02;;;4.45;;
37517;SDS011;23366;52.498;13.446;2023-02-13T03:51:26;9.27;;;4.03;;
37517;SDS011;23366;52.498;13.446;2023-02-13T03:53:57;6.70;;;4.38;;
37517;SDS011;23366;52.498;13.446;2023-02-13T03:56:26;10.65;;;4.50;;
37517;SDS011;23366;52.498;13.446;2023-02-13T03:59:16;10.05;;;5.00;;
37517;SDS011;23366;52.498;13.446;2023-02-13T04:01:52;8.93;;;4.45;;
37517;SDS011;23366;52.498;13.446;2023-02-13T04:04:23;9.30;;;4.82;;
37517;SDS011;23366;52.498;13.446;2023-02-13T04:09:26;8.85;;;4.15;;
37517;SDS011;23366;52.498;13.446;2023-02-13T04:15:27;7.53;;;4.25;;
37517;SDS011;23366;52.498;13.446;2023-02-13T04:18:12;7.00;;;4.05;;
37517;SDS011;23366;52.498;13.446;2023-02-13T04:20:27;7.85;;;4.97;;
37517;SDS011;23366;52.498;13.446;2023-02-13T04:22:53;7.78;;;4.60;;
37517;SDS011;23366;52.498;13.446;2023-02-13T04:25:18;7.40;;;3.97;;
37517;SDS011;23366;52.498;13.446;2023-02-13T04:27:44;9.25;;;4.50;;
37517;SDS011;23366;52.498;13.446;2023-02-13T04:30:10;6.18;;;3.53;;
37517;SDS011;23366;52.498;13.446;2023-02-13T04:32:36;7.32;;;4.15;;
37517;SDS011;23366;52.498;13.446;2023-02-13T04:35:02;8.43;;;4.07;;
37517;SDS011;23366;52.498;13.446;2023-02-13T04:37:27;7.53;;;3.88;;
37517;SDS011;23366;52.498;13.446;2023-02-13T04:39:53;8.88;;;5.00;;
37517;SDS011;23366;52.498;13.446;2023-02-13T04:42:18;7.55;;;4.32;;
37517;SDS011;23366;52.498;13.446;2023-02-13T04:44:44;15.23;;;5.07;;
37517;SDS011;23366;52.498;13.446;2023-02-13T04:47:10;8.07;;;3.72;;
37517;SDS011;23366;52.498;13.446;2023-02-13T04:49:35;7.95;;;3.92;;
37517;SDS011;23366;52.498;13.446;2023-02-13T04:52:01;11.10;;;4.82;;
37517;SDS011;23366;52.498;13.446;2023-02-13T04:54:26;8.63;;;5.20;;
37517;SDS011;23366;52.498;13.446;2023-02-13T04:56:52;8.73;;;4.45;;
37517;SDS011;23366;52.498;13.446;2023-02-13T04:59:17;8.88;;;4.38;;
37517;SDS011;23366;52.498;13.446;2023-02-13T05:01:43;13.75;;;5.40;;
37517;SDS011;23366;52.498;13.446;2023-02-13T05:04:08;11.68;;;6.03;;
37517;SDS011;23366;52.498;13.446;2023-02-13T05:06:35;10.88;;;6.03;;
37517;SDS011;23366;52.498;13.446;2023-02-13T05:09:02;8.00;;;3.80;;
37517;SDS011;23366;52.498;13.446;2023-02-13T05:11:27;8.25;;;4.75;;
37517;SDS011;23366;52.498;13.446;2023-02-13T05:13:53;7.55;;;3.72;;
37517;SDS011;23366;52.498;13.446;2023-02-13T05:16:18;6.00;;;3.60;;
37517;SDS011;23366;52.498;13.446;2023-02-13T05:18:44;8.48;;;4.20;;
37517;SDS011;23366;52.498;13.446;2023-02-13T05:21:09;6.35;;;3.67;;
37517;SDS011;23366;52.498;13.446;2023-02-13T05:23:54;6.57;;;4.13;;
37517;SDS011;23366;52.498;13.446;2023-02-13T05:26:19;9.20;;;4.90;;
37517;SDS011;23366;52.498;13.446;2023-02-13T05:28:45;7.97;;;4.32;;
37517;SDS011;23366;52.498;13.446;2023-02-13T05:31:29;6.78;;;4.10;;
37517;SDS011;23366;52.498;13.446;2023-02-13T05:33:55;7.68;;;3.72;;
37517;SDS011;23366;52.498;13.446;2023-02-13T05:36:20;8.48;;;4.13;;
37517;SDS011;23366;52.498;13.446;2023-02-13T05:38:46;7.10;;;3.65;;
37517;SDS011;23366;52.498;13.446;2023-02-13T05:41:11;6.85;;;3.00;;
37517;SDS011;23366;52.498;13.446;2023-02-13T05:43:40;10.48;;;5.22;;
37517;SDS011;23366;52.498;13.446;2023-02-13T05:46:06;8.98;;;3.88;;
37517;SDS011;23366;52.498;13.446;2023-02-13T05:48:33;6.78;;;3.28;;
37517;SDS011;23366;52.498;13.446;2023-02-13T05:50:59;7.63;;;4.00;;
37517;SDS011;23366;52.498;13.446;2023-02-13T05:53:25;8.57;;;3.28;;
37517;SDS011;23366;52.498;13.446;2023-02-13T05:55:52;8.65;;;3.30;;
37517;SDS011;23366;52.498;13.446;2023-02-13T05:58:18;6.43;;;4.15;;
37517;SDS011;23366;52.498;13.446;2023-02-13T06:00:44;12.18;;;5.47;;
37517;SDS011;23366;52.498;13.446;2023-02-13T06:03:13;10.23;;;4.63;;
37517;SDS011;23366;52.498;13.446;2023-02-13T06:05:39;9.13;;;4.57;;
37517;SDS011;23366;52.498;13.446;2023-02-13T06:08:05;12.40;;;6.22;;
37517;SDS011;23366;52.498;13.446;2023-02-13T06:10:30;7.63;;;4.50;;
37517;SDS011;23366;52.498;13.446;2023-02-13T06:12:56;10.13;;;4.25;;
37517;SDS011;23366;52.498;13.446;2023-02-13T06:15:21;9.25;;;3.72;;
37517;SDS011;23366;52.498;13.446;2023-02-13T06:17:47;6.88;;;4.40;;
37517;SDS011;23366;52.498;13.446;2023-02-13T06:20:12;13.27;;;5.07;;
37517;SDS011;23366;52.498;13.446;2023-02-13T06:22:38;10.23;;;3.97;;
37517;SDS011;23366;52.498;13.446;2023-02-13T06:25:04;6.93;;;3.92;;
37517;SDS011;23366;52.498;13.446;2023-02-13T06:27:30;6.25;;;3.63;;
37517;SDS011;23366;52.498;13.446;2023-02-13T06:29:58;11.57;;;5.82;;
37517;SDS011;23366;52.498;13.446;2023-02-13T06:32:23;10.40;;;5.32;;
37517;SDS011;23366;52.498;13.446;2023-02-13T06:34:49;4.43;;;2.72;;
37517;SDS011;23366;52.498;13.446;2023-02-13T06:37:14;7.30;;;4.00;;
37517;SDS011;23366;52.498;13.446;2023-02-13T06:39:40;7.18;;;4.40;;
37517;SDS011;23366;52.498;13.446;2023-02-13T06:42:06;7.20;;;4.35;;
37517;SDS011;23366;52.498;13.446;2023-02-13T06:44:32;8.73;;;4.55;;
37517;SDS011;23366;52.498;13.446;2023-02-13T06:46:57;8.30;;;4.30;;
37517;SDS011;23366;52.498;13.446;2023-02-13T06:49:23;6.53;;;3.53;;
37517;SDS011;23366;52.498;13.446;2023-02-13T06:51:48;7.10;;;3.55;;
37517;SDS011;23366;52.498;13.446;2023-02-13T06:54:14;4.72;;;3.53;;
37517;SDS011;23366;52.498;13.446;2023-02-13T06:56:39;6.22;;;3.30;;
37517;SDS011;23366;52.498;13.446;2023-02-13T06:59:05;5.35;;;2.92;;
37517;SDS011;23366;52.498;13.446;2023-02-13T07:01:30;6.57;;;3.70;;
37517;SDS011;23366;52.498;13.446;2023-02-13T07:03:56;5.55;;;3.90;;
37517;SDS011;23366;52.498;13.446;2023-02-13T07:06:22;6.97;;;3.67;;
37517;SDS011;23366;52.498;13.446;2023-02-13T07:08:48;10.77;;;3.78;;
37517;SDS011;23366;52.498;13.446;2023-02-13T07:11:16;7.13;;;3.80;;
37517;SDS011;23366;52.498;13.446;2023-02-13T07:13:45;6.05;;;3.65;;
37517;SDS011;23366;52.498;13.446;2023-02-13T07:16:10;6.72;;;3.83;;
37517;SDS011;23366;52.498;13.446;2023-02-13T07:18:36;8.35;;;4.82;;
37517;SDS011;23366;52.498;13.446;2023-02-13T07:21:02;9.73;;;4.60;;
37517;SDS011;23366;52.498;13.446;2023-02-13T07:23:27;7.47;;;4.20;;
37517;SDS011;23366;52.498;13.446;2023-02-13T07:25:53;6.82;;;3.67;;
37517;SDS011;23366;52.498;13.446;2023-02-13T07:28:19;6.45;;;4.15;;
37517;SDS011;23366;52.498;13.446;2023-02-13T07:30:44;7.32;;;3.35;;
37517;SDS011;23366;52.498;13.446;2023-02-13T07:33:10;5.32;;;3.65;;
37517;SDS011;23366;52.498;13.446;2023-02-13T07:35:35;10.50;;;4.25;;
37517;SDS011;23366;52.498;13.446;2023-02-13T07:38:02;6.60;;;3.88;;
37517;SDS011;23366;52.498;13.446;2023-02-13T07:40:28;8.73;;;4.63;;
37517;SDS011;23366;52.498;13.446;2023-02-13T07:42:55;6.32;;;3.70;;
37517;SDS011;23366;52.498;13.446;2023-02-13T07:45:23;8.30;;;4.47;;
37517;SDS011;23366;52.498;13.446;2023-02-13T07:47:49;11.13;;;4.90;;
37517;SDS011;23366;52.498;13.446;2023-02-13T07:50:14;9.13;;;4.20;;
37517;SDS011;23366;52.498;13.446;2023-02-13T07:52:40;7.80;;;5.03;;
37517;SDS011;23366;52.498;13.446;2023-02-13T07:55:05;8.65;;;4.88;;
37517;SDS011;23366;52.498;13.446;2023-02-13T07:57:32;10.63;;;4.47;;
37517;SDS011;23366;52.498;13.446;2023-02-13T07:59:58;13.45;;;7.72;;
37517;SDS011;23366;52.498;13.446;2023-02-13T08:02:23;11.88;;;7.00;;
37517;SDS011;23366;52.498;13.446;2023-02-13T08:04:49;11.52;;;5.97;;
37517;SDS011;23366;52.498;13.446;2023-02-13T08:07:15;15.13;;;6.68;;
37517;SDS011;23366;52.498;13.446;2023-02-13T08:09:43;13.50;;;5.55;;
37517;SDS011;23366;52.498;13.446;2023-02-13T08:12:28;12.00;;;6.22;;
37517;SDS011;23366;52.498;13.446;2023-02-13T08:14:54;9.00;;;5.60;;
37517;SDS011;23366;52.498;13.446;2023-02-13T08:17:20;8.68;;;4.93;;
37517;SDS011;23366;52.498;13.446;2023-02-13T08:19:45;9.27;;;4.40;;
37517;SDS011;23366;52.498;13.446;2023-02-13T08:22:11;7.47;;;5.10;;
37517;SDS011;23366;52.498;13.446;2023-02-13T08:24:36;7.82;;;4.60;;
37517;SDS011;23366;52.498;13.446;2023-02-13T08:27:02;11.40;;;4.35;;
37517;SDS011;23366;52.498;13.446;2023-02-13T08:29:28;16.45;;;7.05;;
37517;SDS011;23366;52.498;13.446;2023-02-13T08:31:53;13.98;;;6.65;;
37517;SDS011;23366;52.498;13.446;2023-02-13T08:34:19;9.60;;;5.18;;
37517;SDS011;23366;52.498;13.446;2023-02-13T08:36:44;10.35;;;4.72;;
37517;SDS011;23366;52.498;13.446;2023-02-13T08:39:10;11.13;;;5.50;;
37517;SDS011;23366;52.498;13.446;2023-02-13T08:41:35;10.52;;;5.80;;
37517;SDS011;23366;52.498;13.446;2023-02-13T08:44:01;13.07;;;6.82;;
37517;SDS011;23366;52.498;13.446;2023-02-13T08:46:26;10.75;;;5.53;;
37517;SDS011;23366;52.498;13.446;2023-02-13T08:48:52;10.15;;;5.82;;
37517;SDS011;23366;52.498;13.446;2023-02-13T08:51:18;13.02;;;6.63;;
37517;SDS011;23366;52.498;13.446;2023-02-13T08:53:44;19.70;;;8.90;;
37517;SDS011;23366;52.498;13.446;2023-02-13T08:56:09;19.02;;;8.85;;
37517;SDS011;23366;52.498;13.446;2023-02-13T08:58:35;12.25;;;5.90;;
37517;SDS011;23366;52.498;13.446;2023-02-13T09:01:03;13.55;;;5.85;;
37517;SDS011;23366;52.498;13.446;2023-02-13T09:03:29;9.85;;;5.38;;
37517;SDS011;23366;52.498;13.446;2023-02-13T09:05:57;10.73;;;5.65;;
37517;SDS011;23366;52.498;13.446;2023-02-13T09:08:25;15.73;;;8.60;;
37517;SDS011;23366;52.498;13.446;2023-02-13T09:10:54;17.48;;;7.82;;
37517;SDS011;23366;52.498;13.446;2023-02-13T09:13:26;17.60;;;8.00;;
37517;SDS011;23366;52.498;13.446;2023-02-13T09:15:58;17.48;;;8.05;;
37517;SDS011;23366;52.498;13.446;2023-02-13T09:18:24;15.05;;;7.13;;
37517;SDS011;23366;52.498;13.446;2023-02-13T09:20:56;14.60;;;6.20;;
37517;SDS011;23366;52.498;13.446;2023-02-13T09:25:48;9.10;;;4.95;;
37517;SDS011;23366;52.498;13.446;2023-02-13T09:28:13;11.52;;;5.82;;
37517;SDS011;23366;52.498;13.446;2023-02-13T09:30:39;13.15;;;6.32;;
37517;SDS011;23366;52.498;13.446;2023-02-13T09:33:08;10.18;;;5.15;;
37517;SDS011;23366;52.498;13.446;2023-02-13T09:35:35;10.70;;;4.88;;
37517;SDS011;23366;52.498;13.446;2023-02-13T09:38:01;7.82;;;4.45;;
37517;SDS011;23366;52.498;13.446;2023-02-13T09:41:09;12.43;;;5.57;;
37517;SDS011;23366;52.498;13.446;2023-02-13T09:44:00;13.90;;;6.40;;
37517;SDS011;23366;52.498;13.446;2023-02-13T09:48:54;13.52;;;6.13;;
37517;SDS011;23366;52.498;13.446;2023-02-13T09:51:22;12.70;;;6.43;;
37517;SDS011;23366;52.498;13.446;2023-02-13T09:53:53;11.80;;;6.07;;
37517;SDS011;23366;52.498;13.446;2023-02-13T10:01:47;9.73;;;6.80;;
37517;SDS011;23366;52.498;13.446;2023-02-13T10:07:18;9.93;;;5.82;;
37517;SDS011;23366;52.498;13.446;2023-02-13T10:10:02;13.02;;;6.95;;
37517;SDS011;23366;52.498;13.446;2023-02-13T10:12:45;15.02;;;7.10;;
37517;SDS011;23366;52.498;13.446;2023-02-13T10:15:24;17.02;;;7.75;;
37517;SDS011;23366;52.498;13.446;2023-02-13T10:18:02;18.20;;;7.28;;
37517;SDS011;23366;52.498;13.446;2023-02-13T10:20:35;13.88;;;6.53;;
37517;SDS011;23366;52.498;13.446;2023-02-13T10:23:20;17.45;;;9.05;;
37517;SDS011;23366;52.498;13.446;2023-02-13T10:25:58;15.30;;;8.07;;
37517;SDS011;23366;52.498;13.446;2023-02-13T10:31:05;11.48;;;6.28;;
37517;SDS011;23366;52.498;13.446;2023-02-13T10:33:37;16.00;;;6.95;;
37517;SDS011;23366;52.498;13.446;2023-02-13T10:38:37;15.82;;;7.60;;
37517;SDS011;23366;52.498;13.446;2023-02-13T10:52:59;9.90;;;4.88;;
37517;SDS011;23366;52.498;13.446;2023-02-13T10:55:30;10.95;;;5.43;;
37517;SDS011;23366;52.498;13.446;2023-02-13T10:58:14;9.77;;;5.40;;
37517;SDS011;23366;52.498;13.446;2023-02-13T11:03:17;9.43;;;5.85;;
37517;SDS011;23366;52.498;13.446;2023-02-13T11:05:45;9.25;;;4.70;;
37517;SDS011;23366;52.498;13.446;2023-02-13T11:08:53;11.82;;;6.47;;
37517;SDS011;23366;52.498;13.446;2023-02-13T11:14:07;10.73;;;5.47;;
37517;SDS011;23366;52.498;13.446;2023-02-13T11:16:39;9.75;;;6.03;;
37517;SDS011;23366;52.498;13.446;2023-02-13T11:19:32;10.32;;;5.22;;
37517;SDS011;23366;52.498;13.446;2023-02-13T11:22:05;9.70;;;6.15;;
37517;SDS011;23366;52.498;13.446;2023-02-13T11:27:04;15.00;;;6.72;;
37517;SDS011;23366;52.498;13.446;2023-02-13T11:29:37;12.63;;;6.45;;
37517;SDS011;23366;52.498;13.446;2023-02-13T11:32:24;13.55;;;5.78;;
37517;SDS011;23366;52.498;13.446;2023-02-13T11:34:51;13.45;;;7.25;;
37517;SDS011;23366;52.498;13.446;2023-02-13T11:37:23;13.73;;;6.85;;
37517;SDS011;23366;52.498;13.446;2023-02-13T11:39:52;12.23;;;6.72;;
37517;SDS011;23366;52.498;13.446;2023-02-13T11:42:24;10.75;;;5.82;;
37517;SDS011;23366;52.498;13.446;2023-02-13T11:47:43;13.32;;;7.60;;
37517;SDS011;23366;52.498;13.446;2023-02-13T11:50:26;31.30;;;12.75;;
37517;SDS011;23366;52.498;13.446;2023-02-13T11:55:34;48.92;;;18.65;;
37517;SDS011;23366;52.498;13.446;2023-02-13T12:00:36;21.90;;;10.75;;
37517;SDS011;23366;52.498;13.446;2023-02-13T12:08:30;25.63;;;10.38;;
37517;SDS011;23366;52.498;13.446;2023-02-13T12:10:58;18.77;;;8.77;;
37517;SDS011;23366;52.498;13.446;2023-02-13T12:13:30;15.82;;;8.30;;
37517;SDS011;23366;52.498;13.446;2023-02-13T12:16:01;19.67;;;9.80;;
37517;SDS011;23366;52.498;13.446;2023-02-13T12:18:39;18.35;;;8.73;;
37517;SDS011;23366;52.498;13.446;2023-02-13T12:21:13;15.20;;;8.02;;
37517;SDS011;23366;52.498;13.446;2023-02-13T12:24:02;17.15;;;8.02;;
37517;SDS011;23366;52.498;13.446;2023-02-13T12:26:47;16.98;;;8.93;;
37517;SDS011;23366;52.498;13.446;2023-02-13T12:43:45;18.27;;;7.43;;
37517;SDS011;23366;52.498;13.446;2023-02-13T13:19:46;15.80;;;7.75;;
37517;SDS011;23366;52.498;13.446;2023-02-13T13:27:54;16.00;;;7.40;;
37517;SDS011;23366;52.498;13.446;2023-02-13T13:30:32;16.52;;;8.38;;
37517;SDS011;23366;52.498;13.446;2023-02-13T13:33:02;18.58;;;8.85;;
37517;SDS011;23366;52.498;13.446;2023-02-13T13:35:28;18.25;;;9.18;;
37517;SDS011;23366;52.498;13.446;2023-02-13T13:37:57;19.50;;;9.20;;
37517;SDS011;23366;52.498;13.446;2023-02-13T13:43:21;17.50;;;8.35;;
37517;SDS011;23366;52.498;13.446;2023-02-13T13:45:58;14.05;;;6.45;;
37517;SDS011;23366;52.498;13.446;2023-02-13T13:49:15;19.60;;;9.38;;
37517;SDS011;23366;52.498;13.446;2023-02-13T13:51:39;19.05;;;8.82;;
37517;SDS011;23366;52.498;13.446;2023-02-13T14:07:39;17.73;;;8.88;;
37517;SDS011;23366;52.498;13.446;2023-02-13T14:10:11;14.45;;;8.10;;
37517;SDS011;23366;52.498;13.446;2023-02-13T14:12:45;19.33;;;8.65;;
37517;SDS011;23366;52.498;13.446;2023-02-13T14:17:58;15.75;;;7.07;;
37517;SDS011;23366;52.498;13.446;2023-02-13T14:20:42;19.92;;;8.98;;
37517;SDS011;23366;52.498;13.446;2023-02-13T14:28:57;15.90;;;8.20;;
37517;SDS011;23366;52.498;13.446;2023-02-13T14:31:36;21.10;;;9.32;;
37517;SDS011;23366;52.498;13.446;2023-02-13T14:36:39;17.42;;;8.43;;
37517;SDS011;23366;52.498;13.446;2023-02-13T14:44:17;16.60;;;8.13;;
37517;SDS011;23366;52.498;13.446;2023-02-13T14:46:45;15.52;;;7.20;;
37517;SDS011;23366;52.498;13.446;2023-02-13T14:49:15;14.57;;;7.20;;
37517;SDS011;23366;52.498;13.446;2023-02-13T14:51:48;14.20;;;7.80;;
37517;SDS011;23366;52.498;13.446;2023-02-13T14:54:26;20.33;;;9.48;;
37517;SDS011;23366;52.498;13.446;2023-02-13T14:56:53;15.82;;;8.07;;
37517;SDS011;23366;52.498;13.446;2023-02-13T14:59:39;19.27;;;9.75;;
37517;SDS011;23366;52.498;13.446;2023-02-13T15:02:24;17.48;;;9.20;;
37517;SDS011;23366;52.498;13.446;2023-02-13T15:05:34;21.67;;;9.30;;
37517;SDS011;23366;52.498;13.446;2023-02-13T15:08:04;16.02;;;7.35;;
37517;SDS011;23366;52.498;13.446;2023-02-13T15:10:46;18.58;;;9.50;;
37517;SDS011;23366;52.498;13.446;2023-02-13T15:13:23;21.90;;;9.23;;
37517;SDS011;23366;52.498;13.446;2023-02-13T15:18:36;19.92;;;9.55;;
37517;SDS011;23366;52.498;13.446;2023-02-13T15:21:20;25.90;;;9.75;;
37517;SDS011;23366;52.498;13.446;2023-02-13T15:23:48;15.70;;;8.48;;
37517;SDS011;23366;52.498;13.446;2023-02-13T15:26:19;14.90;;;7.07;;
37517;SDS011;23366;52.498;13.446;2023-02-13T15:31:30;19.23;;;8.85;;
37517;SDS011;23366;52.498;13.446;2023-02-13T15:34:02;19.88;;;9.32;;
37517;SDS011;23366;52.498;13.446;2023-02-13T15:36:33;18.48;;;8.85;;
37517;SDS011;23366;52.498;13.446;2023-02-13T15:39:04;15.23;;;8.57;;
37517;SDS011;23366;52.498;13.446;2023-02-13T15:41:32;18.52;;;8.52;;
37517;SDS011;23366;52.498;13.446;2023-02-13T15:44:01;14.23;;;8.15;;
37517;SDS011;23366;52.498;13.446;2023-02-13T15:46:28;14.85;;;7.78;;
37517;SDS011;23366;52.498;13.446;2023-02-13T15:49:06;14.35;;;7.53;;
37517;SDS011;23366;52.498;13.446;2023-02-13T15:51:35;14.38;;;7.65;;
37517;SDS011;23366;52.498;13.446;2023-02-13T15:54:02;20.48;;;8.45;;
37517;SDS011;23366;52.498;13.446;2023-02-13T15:56:30;17.73;;;8.52;;
37517;SDS011;23366;52.498;13.446;2023-02-13T15:58:57;15.93;;;8.32;;
37517;SDS011;23366;52.498;13.446;2023-02-13T16:01:24;15.45;;;8.30;;
37517;SDS011;23366;52.498;13.446;2023-02-13T16:04:01;22.02;;;10.05;;
37517;SDS011;23366;52.498;13.446;2023-02-13T16:06:29;13.32;;;7.07;;
37517;SDS011;23366;52.498;13.446;2023-02-13T16:08:56;16.17;;;8.55;;
37517;SDS011;23366;52.498;13.446;2023-02-13T16:11:36;17.77;;;9.40;;
37517;SDS011;23366;52.498;13.446;2023-02-13T16:14:07;15.20;;;8.32;;
37517;SDS011;23366;52.498;13.446;2023-02-13T16:27:16;19.20;;;8.20;;
37517;SDS011;23366;52.498;13.446;2023-02-13T16:29:53;14.27;;;7.47;;
37517;SDS011;23366;52.498;13.446;2023-02-13T16:32:28;20.58;;;9.63;;
37517;SDS011;23366;52.498;13.446;2023-02-13T16:35:15;18.55;;;9.43;;
37517;SDS011;23366;52.498;13.446;2023-02-13T16:37:58;19.30;;;10.23;;
37517;SDS011;23366;52.498;13.446;2023-02-13T16:40:33;14.65;;;9.38;;
37517;SDS011;23366;52.498;13.446;2023-02-13T16:44:00;17.88;;;7.70;;
37517;SDS011;23366;52.498;13.446;2023-02-13T16:51:24;19.20;;;9.38;;
37517;SDS011;23366;52.498;13.446;2023-02-13T16:54:28;20.83;;;10.30;;
37517;SDS011;23366;52.498;13.446;2023-02-13T17:02:22;16.90;;;9.90;;
37517;SDS011;23366;52.498;13.446;2023-02-13T17:07:42;13.93;;;7.90;;
37517;SDS011;23366;52.498;13.446;2023-02-13T17:10:24;15.75;;;7.93;;
37517;SDS011;23366;52.498;13.446;2023-02-13T17:12:51;18.30;;;8.93;;
37517;SDS011;23366;52.498;13.446;2023-02-13T17:15:23;15.13;;;8.70;;
37517;SDS011;23366;52.498;13.446;2023-02-13T17:17:50;15.18;;;8.32;;
37517;SDS011;23366;52.498;13.446;2023-02-13T17:20:20;14.02;;;8.48;;
37517;SDS011;23366;52.498;13.446;2023-02-13T17:22:51;20.63;;;8.48;;
37517;SDS011;23366;52.498;13.446;2023-02-13T17:27:47;18.88;;;10.05;;
37517;SDS011;23366;52.498;13.446;2023-02-13T17:30:18;18.92;;;9.25;;
37517;SDS011;23366;52.498;13.446;2023-02-13T17:32:46;20.38;;;8.80;;
37517;SDS011;23366;52.498;13.446;2023-02-13T17:35:13;21.67;;;10.23;;
37517;SDS011;23366;52.498;13.446;2023-02-13T17:37:39;20.00;;;9.65;;
37517;SDS011;23366;52.498;13.446;2023-02-13T17:40:06;24.33;;;11.85;;
37517;SDS011;23366;52.498;13.446;2023-02-13T17:42:32;16.38;;;8.90;;
37517;SDS011;23366;52.498;13.446;2023-02-13T17:44:59;18.13;;;9.05;;
37517;SDS011;23366;52.498;13.446;2023-02-13T17:47:25;18.67;;;8.93;;
37517;SDS011;23366;52.498;13.446;2023-02-13T17:49:51;20.52;;;8.85;;
37517;SDS011;23366;52.498;13.446;2023-02-13T17:52:19;20.70;;;10.68;;
37517;SDS011;23366;52.498;13.446;2023-02-13T17:54:46;14.82;;;7.70;;
37517;SDS011;23366;52.498;13.446;2023-02-13T17:57:13;24.35;;;10.25;;
37517;SDS011;23366;52.498;13.446;2023-02-13T17:59:40;21.27;;;10.73;;
37517;SDS011;23366;52.498;13.446;2023-02-13T18:02:11;23.63;;;10.43;;
37517;SDS011;23366;52.498;13.446;2023-02-13T18:04:38;18.35;;;8.98;;
37517;SDS011;23366;52.498;13.446;2023-02-13T18:07:04;17.48;;;8.40;;
37517;SDS011;23366;52.498;13.446;2023-02-13T18:09:29;17.13;;;9.10;;
37517;SDS011;23366;52.498;13.446;2023-02-13T18:11:55;22.77;;;10.38;;
37517;SDS011;23366;52.498;13.446;2023-02-13T18:14:21;21.20;;;9.77;;
37517;SDS011;23366;52.498;13.446;2023-02-13T18:16:46;17.95;;;8.25;;
37517;SDS011;23366;52.498;13.446;2023-02-13T18:19:12;20.20;;;9.82;;
37517;SDS011;23366;52.498;13.446;2023-02-13T18:21:38;23.73;;;11.48;;
37517;SDS011;23366;52.498;13.446;2023-02-13T18:24:04;23.63;;;9.60;;
37517;SDS011;23366;52.498;13.446;2023-02-13T18:26:30;25.17;;;10.80;;